Time;durP1;ratioP1;P1;durP2;ratioP2;P2;SDS_P1;SDS_P2;PMS_P1;PMS_P2;Temp;Humidity;BMP_temperature;BMP_pressure;BME280_temperature;BME280_humidity;BME280_pressure;Samples;Min_cycle;Max_cycle;Signal;HPM_P1;HPM_P2
2022/12/24 00:01:30;;;;;;;53.85;18.85;;;;;;;;;;4883726;29;20044;-73
2022/12/24 00:03:56;;;;;;;46.00;19.15;;;;;;;;;;4899468;29;20131;-73
2022/12/24 00:06:23;;;;;;;46.35;18.67;;;6.80;99.90;;;;;;4899161;29;20400;-73
2022/12/24 00:08:50;;;;;;;45.10;17.95;;;;;;;;;;4898931;29;20064;-73
2022/12/24 00:11:16;;;;;;;48.17;19.05;;;;;;;;;;4883730;29;20438;-73
2022/12/24 00:13:42;;;;;;;47.85;18.73;;;;;;;;;;4899061;29;20473;-73
2022/12/24 00:16:08;;;;;;;45.70;17.98;;;;;;;;;;4899174;29;20040;-73
2022/12/24 00:18:34;;;;;;;47.47;17.08;;;;;;;;;;4899156;29;20119;-73
2022/12/24 00:21:02;;;;;;;44.63;18.55;;;;;;;;;;4901266;29;20028;-73
2022/12/24 00:23:28;;;;;;;48.25;17.58;;;;;;;;;;4903059;29;20048;-73
2022/12/24 00:25:55;;;;;;;45.38;18.73;;;;;;;;;;4902781;29;20051;-73
2022/12/24 00:28:21;;;;;;;50.05;18.52;;;;;;;;;;4903016;29;20392;-73
2022/12/24 00:30:47;;;;;;;49.42;18.15;;;;;;;;;;4919669;29;20036;-73
2022/12/24 00:33:13;;;;;;;44.75;17.95;;;;;;;;;;4902815;29;20386;-73
2022/12/24 00:35:40;;;;;;;53.70;19.83;;;;;;;;;;4902453;29;20079;-73
2022/12/24 00:38:06;;;;;;;51.85;20.50;;;7.00;99.90;;;;;;4902985;29;20040;-73
2022/12/24 00:40:33;;;;;;;51.58;19.27;;;;;;;;;;4919387;29;20048;-73
2022/12/24 00:42:59;;;;;;;45.70;17.73;;;;;;;;;;4901956;29;20052;-73
2022/12/24 00:45:26;;;;;;;53.15;19.20;;;;;;;;;;4902355;29;20044;-73
2022/12/24 00:47:53;;;;;;;49.33;19.48;;;;;;;;;;4902543;29;20386;-73
2022/12/24 00:50:19;;;;;;;55.20;20.23;;;;;;;;;;4902300;29;20131;-73
2022/12/24 00:52:45;;;;;;;46.90;19.02;;;;;;;;;;4901414;29;20043;-73
2022/12/24 00:55:11;;;;;;;48.95;18.08;;;;;;;;;;4886814;29;20043;-73
2022/12/24 00:57:37;;;;;;;48.70;19.00;;;;;;;;;;4902759;29;20039;-73
2022/12/24 01:00:04;;;;;;;50.85;18.50;;;;;;;;;;4919057;29;20055;-73
2022/12/24 01:02:30;;;;;;;42.90;19.02;;;;;;;;;;4884416;29;20066;-73
2022/12/24 01:05:11;;;;;;;42.85;17.92;;;;;;;;;;4886775;29;20040;-73
2022/12/24 01:07:39;;;;;;;39.75;16.67;;;7.00;99.90;;;;;;4901974;29;20052;-73
2022/12/24 01:10:06;;;;;;;47.10;17.70;;;;;;;;;;4902003;29;20104;-73
2022/12/24 01:12:32;;;;;;;49.55;17.25;;;;;;;;;;4886807;29;20044;-73
2022/12/24 01:14:58;;;;;;;44.13;18.42;;;;;;;;;;4901913;29;20048;-73
2022/12/24 01:17:24;;;;;;;46.30;18.75;;;;;;;;;;4899532;29;20044;-73
2022/12/24 01:19:50;;;;;;;42.42;17.60;;;;;;;;;;4902116;29;20439;-73
2022/12/24 01:22:16;;;;;;;46.20;17.08;;;;;;;;;;4918975;29;20046;-73
2022/12/24 01:24:43;;;;;;;50.72;19.70;;;;;;;;;;4902033;29;20036;-73
2022/12/24 01:27:09;;;;;;;54.10;19.80;;;;;;;;;;4901728;29;20044;-73
2022/12/24 01:29:35;;;;;;;51.22;19.60;;;;;;;;;;4886147;29;20123;-74
2022/12/24 01:32:01;;;;;;;47.63;18.65;;;;;;;;;;4900860;29;20115;-74
2022/12/24 01:34:27;;;;;;;47.53;18.98;;;;;;;;;;4901613;29;20040;-73
2022/12/24 01:36:53;;;;;;;43.63;16.75;;;;;;;;;;4902110;29;20410;-74
2022/12/24 01:39:19;;;;;;;54.00;19.42;;;;;;;;;;4901786;29;20071;-73
2022/12/24 01:44:33;;;;;;;47.78;18.23;;;7.00;99.90;;;;;;4901753;29;20051;-74
2022/12/24 01:47:31;;;;;;;47.80;17.65;;;6.90;99.90;;;;;;4901234;29;20512;-73
2022/12/24 01:50:00;;;;;;;47.15;19.33;;;6.90;99.90;;;;;;4855262;29;20073;-73
2022/12/24 01:52:32;;;;;;;51.08;20.00;;;;;;;;;;4901260;29;20047;-73
2022/12/24 01:55:10;;;;;;;53.72;19.73;;;;;;;;;;4901353;29;20115;-73
2022/12/24 01:57:41;;;;;;;50.28;20.70;;;;;;;;;;4901390;29;20044;-73
2022/12/24 02:00:09;;;;;;;51.03;19.67;;;;;;;;;;4901407;29;20496;-73
2022/12/24 02:02:36;;;;;;;48.67;20.45;;;;;;;;;;4901285;29;20375;-73
2022/12/24 02:05:08;;;;;;;48.75;20.05;;;6.80;99.90;;;;;;4898768;29;20036;-73
2022/12/24 02:07:35;;;;;;;54.55;20.90;;;;;;;;;;4900812;29;20401;-73
2022/12/24 02:10:01;;;;;;;50.03;19.52;;;;;;;;;;4900998;29;20547;-73
2022/12/24 02:12:31;;;;;;;51.40;19.45;;;7.10;99.90;;;;;;4884722;29;20504;-73
2022/12/24 02:14:57;;;;;;;46.40;18.83;;;;;;;;;;4900989;29;20036;-73
2022/12/24 02:17:31;;;;;;;50.22;19.00;;;6.80;99.90;;;;;;4900992;29;20079;-73
2022/12/24 02:19:57;;;;;;;50.95;20.88;;;;;;;;;;4885386;29;20052;-73
2022/12/24 02:22:29;;;;;;;54.38;21.92;;;6.20;99.90;;;;;;4900939;29;20126;-73
2022/12/24 02:24:59;;;;;;;47.00;18.98;;;;;;;;;;4900891;29;20047;-74
2022/12/24 02:27:50;;;;;;;49.92;20.15;;;7.10;99.90;;;;;;4901015;29;20059;-73
2022/12/24 02:30:23;;;;;;;47.55;19.33;;;7.00;99.90;;;;;;4892894;29;20096;-73
2022/12/24 02:32:53;;;;;;;48.53;20.92;;;;;;;;;;4900389;29;20048;-73
2022/12/24 02:35:40;;;;;;;48.47;20.23;;;7.10;99.90;;;;;;4885019;29;20048;-73
2022/12/24 02:38:25;;;;;;;50.60;19.77;;;;;;;;;;4884798;29;20044;-73
2022/12/24 02:41:10;;;;;;;50.35;20.38;;;;;;;;;;4900396;29;20042;-73
2022/12/24 02:43:40;;;;;;;51.00;20.33;;;7.20;99.90;;;;;;4883003;29;20463;-73
2022/12/24 02:46:17;;;;;;;54.45;19.90;;;7.30;99.90;;;;;;4885132;29;20044;-73
2022/12/24 02:48:46;;;;;;;55.55;19.58;;;7.40;99.90;;;;;;4900500;29;20458;-73
2022/12/24 02:51:12;;;;;;;55.10;18.15;;;;;;;;;;4900174;29;20044;-73
2022/12/24 02:53:38;;;;;;;53.00;17.50;;;7.40;99.90;;;;;;4900445;29;20397;-74
2022/12/24 02:56:10;;;;;;;46.22;15.93;;;;;;;;;;4917230;29;20099;-73
2022/12/24 02:58:54;;;;;;;44.00;15.63;;;7.50;99.90;;;;;;4900276;29;20036;-73
2022/12/24 03:01:34;;;;;;;52.13;14.57;;;7.60;99.90;;;;;;4900153;29;20401;-73
2022/12/24 03:04:18;;;;;;;49.33;14.15;;;7.80;99.90;;;;;;4899689;29;20182;-73
2022/12/24 03:06:44;;;;;;;47.17;12.00;;;;;;;;;;4899980;29;20127;-73
2022/12/24 03:09:16;;;;;;;39.53;13.85;;;;;;;;;;4899716;29;20044;-73
2022/12/24 03:11:50;;;;;;;39.72;10.57;;;7.70;99.90;;;;;;4900182;29;20032;-73
2022/12/24 03:14:16;;;;;;;28.17;10.40;;;;;;;;;;4899620;29;20047;-73
2022/12/24 03:16:43;;;;;;;36.55;9.63;;;7.60;99.90;;;;;;4900136;29;20091;-73
2022/12/24 03:19:10;;;;;;;30.92;10.32;;;;;;;;;;4884620;29;20048;-73
2022/12/24 03:21:38;;;;;;;41.78;11.55;;;;;;;;;;4899853;29;20050;-73
2022/12/24 03:24:04;;;;;;;46.20;10.27;;;;;;;;;;4899616;29;20409;-73
2022/12/24 03:26:32;;;;;;;35.90;9.88;;;7.80;99.90;;;;;;4899828;29;20036;-73
2022/12/24 03:28:58;;;;;;;40.95;10.73;;;;;;;;;;4899243;29;20056;-70
2022/12/24 03:31:24;;;;;;;45.17;11.93;;;;;;;;;;4884458;29;20055;-70
2022/12/24 03:33:50;;;;;;;40.50;10.00;;;;;;;;;;4899512;29;20032;-70
2022/12/24 03:36:17;;;;;;;50.88;10.38;;;;;;;;;;4899590;29;20043;-70
2022/12/24 03:38:43;;;;;;;39.13;10.57;;;;;;;;;;4899540;29;20051;-70
2022/12/24 03:41:09;;;;;;;39.85;9.98;;;;;;;;;;4884188;29;20036;-70
2022/12/24 03:43:35;;;;;;;38.42;11.05;;;;;;;;;;4899415;29;20242;-70
2022/12/24 03:46:06;;;;;;;34.50;10.25;;;8.10;99.90;;;;;;4898956;29;20119;-70
2022/12/24 03:48:34;;;;;;;44.67;10.48;;;8.20;99.90;;;;;;4899319;29;20047;-70
2022/12/24 03:51:00;;;;;;;45.75;10.55;;;;;;;;;;4899348;29;20059;-70
2022/12/24 03:53:26;;;;;;;62.63;11.07;;;;;;;;;;4915403;29;20036;-70
2022/12/24 03:55:52;;;;;;;50.72;10.45;;;;;;;;;;4899339;29;20052;-70
2022/12/24 03:58:18;;;;;;;48.75;11.45;;;;;;;;;;4884019;29;20048;-70
2022/12/24 04:00:44;;;;;;;49.50;10.27;;;;;;;;;;4898853;29;20044;-70
2022/12/24 04:03:10;;;;;;;67.00;10.90;;;;;;;;;;4899242;29;20047;-70
2022/12/24 04:05:36;;;;;;;67.15;11.23;;;;;;;;;;4896688;29;20047;-70
2022/12/24 04:08:02;;;;;;;69.35;9.73;;;;;;;;;;4883325;29;20493;-70
2022/12/24 04:10:28;;;;;;;71.50;8.35;;;;;;;;;;4898878;29;20052;-70
2022/12/24 04:12:54;;;;;;;64.82;7.75;;;;;;;;;;4899414;29;20079;-70
2022/12/24 04:15:20;;;;;;;52.10;7.45;;;;;;;;;;4899431;29;20051;-70
2022/12/24 04:17:46;;;;;;;61.75;9.60;;;;;;;;;;4899055;29;20152;-70
2022/12/24 04:20:12;;;;;;;65.22;9.07;;;;;;;;;;4916084;29;20050;-70
2022/12/24 04:22:38;;;;;;;74.20;8.50;;;;;;;;;;4899141;29;20044;-70
2022/12/24 04:25:05;;;;;;;65.68;8.32;;;;;;;;;;4899367;29;20389;-70
2022/12/24 04:27:31;;;;;;;73.95;8.18;;;;;;;;;;4915714;29;20040;-70
2022/12/24 04:29:57;;;;;;;75.50;10.80;;;;;;;;;;4898872;29;20055;-70
2022/12/24 04:32:25;;;;;;;58.20;8.00;;;;;;;;;;4915971;29;20127;-70
2022/12/24 04:34:51;;;;;;;71.53;8.93;;;;;;;;;;4899023;29;20490;-70
2022/12/24 04:37:17;;;;;;;69.13;7.32;;;;;;;;;;4898536;29;20048;-70
2022/12/24 04:39:43;;;;;;;67.43;7.25;;;;;;;;;;4915757;29;20418;-71
2022/12/24 04:42:09;;;;;;;73.30;8.48;;;;;;;;;;4899175;29;20245;-70
2022/12/24 04:44:35;;;;;;;72.00;8.90;;;;;;;;;;4898977;29;20047;-70
2022/12/24 04:47:01;;;;;;;61.75;8.65;;;;;;;;;;4898932;29;20050;-71
2022/12/24 04:49:27;;;;;;;57.67;6.47;;;;;;;;;;4882996;29;20490;-71
2022/12/24 04:51:53;;;;;;;67.72;8.85;;;;;;;;;;4898799;29;20397;-71
2022/12/24 04:54:19;;;;;;;77.32;7.72;;;;;;;;;;4883347;29;20104;-71
2022/12/24 04:56:45;;;;;;;65.22;6.95;;;;;;;;;;4899002;29;20078;-71
2022/12/24 04:59:11;;;;;;;80.97;7.30;;;;;;;;;;4898549;29;20044;-69
2022/12/24 05:01:37;;;;;;;73.43;6.72;;;;;;;;;;4898632;29;20502;-70
2022/12/24 05:04:05;;;;;;;88.55;9.25;;;;;;;;;;4898802;29;20501;-71
2022/12/24 05:06:32;;;;;;;91.85;9.07;;;7.90;99.90;;;;;;4901822;29;20126;-71
2022/12/24 05:08:59;;;;;;;81.82;8.00;;;7.80;99.90;;;;;;4901667;29;20060;-71
2022/12/24 05:11:25;;;;;;;69.68;7.50;;;;;;;;;;4901022;29;20397;-71
2022/12/24 05:13:51;;;;;;;65.93;8.50;;;;;;;;;;4885786;29;20051;-71
2022/12/24 05:16:19;;;;;;;73.03;8.32;;;8.00;99.90;;;;;;4901986;29;20075;-71
2022/12/24 05:18:45;;;;;;;78.15;7.72;;;;;;;;;;4900110;29;20071;-71
2022/12/24 05:21:14;;;;;;;76.80;8.48;;;8.10;99.90;;;;;;4901834;29;20131;-71
2022/12/24 05:26:34;;;;;;;79.25;8.35;;;;;;;;;;4902034;29;20072;-71
2022/12/24 05:29:01;;;;;;;72.93;8.95;;;;;;;;;;4902030;29;20063;-71
2022/12/24 05:31:28;;;;;;;92.32;7.57;;;;;;;;;;4886078;29;20048;-71
2022/12/24 05:33:54;;;;;;;88.03;8.95;;;;;;;;;;4901948;29;20083;-71
2022/12/24 05:36:21;;;;;;;62.72;7.22;;;;;;;;;;4918502;29;20044;-71
2022/12/24 05:38:47;;;;;;;83.05;8.90;;;;;;;;;;4886489;29;20469;-71
2022/12/24 05:41:13;;;;;;;81.32;9.57;;;;;;;;;;4901847;29;20037;-71
2022/12/24 05:43:40;;;;;;;87.78;9.52;;;;;;;;;;4901390;29;20078;-71
2022/12/24 05:46:08;;;;;;;92.07;7.05;;;7.90;99.90;;;;;;4901682;29;20485;-71
2022/12/24 05:48:34;;;;;;;73.38;8.70;;;;;;;;;;4901350;29;20481;-71
2022/12/24 05:51:04;;;;;;;71.25;9.45;;;8.10;99.90;;;;;;4901597;29;20036;-71
2022/12/24 05:53:30;;;;;;;72.50;6.07;;;;;;;;;;4901731;29;20056;-71
2022/12/24 05:56:05;;;;;;;80.32;8.05;;;8.00;99.90;;;;;;4901466;29;20075;-71
2022/12/24 05:58:31;;;;;;;78.20;7.20;;;;;;;;;;4900061;29;20036;-71
2022/12/24 06:00:58;;;;;;;80.75;8.07;;;;;;;;;;4901387;29;20059;-71
2022/12/24 06:03:24;;;;;;;68.30;6.57;;;;;;;;;;4901594;29;20083;-71
2022/12/24 06:06:19;;;;;;;67.95;7.03;;;7.90;99.90;;;;;;4901542;29;20480;-71
2022/12/24 06:08:46;;;;;;;57.92;7.35;;;;;;;;;;4901945;29;20415;-71
2022/12/24 06:11:13;;;;;;;73.72;7.50;;;;;;;;;;4901489;29;20536;-71
2022/12/24 06:13:40;;;;;;;64.43;7.47;;;7.80;99.90;;;;;;4886385;29;20096;-71
2022/12/24 06:16:09;;;;;;;71.60;6.57;;;7.80;99.90;;;;;;4901933;29;20508;-71
2022/12/24 06:18:36;;;;;;;54.05;6.30;;;;;;;;;;4918485;29;20040;-71
2022/12/24 06:21:02;;;;;;;80.32;9.15;;;;;;;;;;4902088;29;20040;-71
2022/12/24 06:23:29;;;;;;;60.58;7.20;;;;;;;;;;4901650;29;20488;-71
2022/12/24 06:25:56;;;;;;;58.47;6.55;;;7.80;99.90;;;;;;4901661;29;20079;-71
2022/12/24 06:28:22;;;;;;;80.68;8.80;;;;;;;;;;4885873;29;20048;-71
2022/12/24 06:30:49;;;;;;;70.15;6.53;;;;;;;;;;4885921;29;20493;-71
2022/12/24 06:33:17;;;;;;;64.32;6.45;;;7.90;99.90;;;;;;4901622;29;20048;-73
2022/12/24 06:35:47;;;;;;;68.43;8.35;;;8.40;99.90;;;;;;4901438;29;20397;-73
2022/12/24 06:38:14;;;;;;;69.28;7.15;;;7.80;99.90;;;;;;4901703;29;20048;-73
2022/12/24 06:40:42;;;;;;;54.45;6.78;;;7.60;99.90;;;;;;4885864;29;20072;-73
2022/12/24 06:43:08;;;;;;;65.68;9.00;;;;;;;;;;4901626;29;20048;-73
2022/12/24 06:45:34;;;;;;;52.05;6.30;;;;;;;;;;4901249;29;20543;-71
2022/12/24 06:48:00;;;;;;;66.85;6.82;;;;;;;;;;4901874;29;20389;-71
2022/12/24 06:50:27;;;;;;;55.40;6.90;;;;;;;;;;4900969;29;20074;-71
2022/12/24 06:52:53;;;;;;;78.35;7.88;;;;;;;;;;4885641;29;20054;-71
2022/12/24 06:55:19;;;;;;;63.75;6.57;;;;;;;;;;4901071;29;20488;-71
2022/12/24 06:57:45;;;;;;;62.38;6.47;;;;;;;;;;4901662;29;20063;-71
2022/12/24 07:00:12;;;;;;;55.20;5.38;;;;;;;;;;4901010;29;20381;-71
2022/12/24 07:02:41;;;;;;;86.07;10.88;;;7.30;99.90;;;;;;4901066;29;20040;-71
2022/12/24 07:05:11;;;;;;;47.85;8.98;;;7.30;99.90;;;;;;4900847;29;20048;-71
2022/12/24 07:07:38;;;;;;;64.82;6.90;;;7.30;99.90;;;;;;4900703;29;20180;-71
2022/12/24 07:10:04;;;;;;;59.35;7.53;;;8.30;99.90;;;;;;4885136;29;20065;-71
2022/12/24 07:12:30;;;;;;;51.17;7.43;;;;;;;;;;4901042;29;20366;-71
2022/12/24 07:14:56;;;;;;;53.13;5.90;;;;;;;;;;4900737;29;20040;-71
2022/12/24 07:17:22;;;;;;;70.25;8.40;;;;;;;;;;4885294;29;20048;-71
2022/12/24 07:19:48;;;;;;;49.03;6.18;;;;;;;;;;4885524;29;20048;-70
2022/12/24 07:22:14;;;;;;;66.88;6.38;;;;;;;;;;4900696;29;20429;-71
2022/12/24 07:24:41;;;;;;;58.03;6.30;;;;;;;;;;4900761;29;20088;-70
2022/12/24 07:27:07;;;;;;;60.80;6.32;;;;;;;;;;4900462;29;20072;-70
2022/12/24 14:36:49;;;;;;;42.60;5.85;;;8.70;99.90;;;;;;5687548;23;20453;-75
2022/12/24 14:39:21;;;;;;;41.38;5.57;;;8.70;99.90;;;;;;4872432;29;20052;-69
2022/12/24 14:41:58;;;;;;;40.35;5.80;;;8.50;99.90;;;;;;4917946;29;20051;-69
2022/12/24 14:44:56;;;;;;;50.33;6.90;;;8.30;99.90;;;;;;4902447;29;20126;-69
2022/12/24 14:47:41;;;;;;;35.70;5.93;;;8.40;99.90;;;;;;4872774;29;20139;-69
2022/12/24 14:50:11;;;;;;;40.50;5.20;;;;;;;;;;4937253;29;20052;-69
2022/12/24 14:52:38;;;;;;;27.40;6.10;;;;;;;;;;4929732;29;20051;-69
2022/12/24 14:55:35;;;;;;;32.90;5.20;;;8.20;99.90;;;;;;4914104;29;20552;-69
2022/12/24 14:58:17;;;;;;;41.47;5.00;;;;;;;;;;4894062;29;20468;-70
2022/12/24 15:00:43;;;;;;;44.22;5.82;;;;;;;;;;4882304;29;20396;-69
2022/12/24 15:03:14;;;;;;;34.30;4.32;;;8.10;99.90;;;;;;4902834;29;20451;-69
2022/12/24 15:05:40;;;;;;;35.70;4.40;;;;;;;;;;4900805;29;20455;-69
2022/12/24 15:08:18;;;;;;;44.15;6.53;;;8.10;99.90;;;;;;4908981;29;20044;-70
2022/12/24 15:10:46;;;;;;;47.13;6.15;;;;;;;;;;4916990;29;20040;-69
2022/12/24 15:13:39;;;;;;;33.28;6.38;;;8.00;99.90;;;;;;4900067;29;20519;-69
2022/12/24 15:16:07;;;;;;;44.20;8.07;;;;;;;;;;4905685;29;20040;-69
2022/12/24 15:18:36;;;;;;;35.85;6.07;;;8.10;99.90;;;;;;4914132;29;20180;-69
2022/12/24 15:21:04;;;;;;;43.38;6.22;;;;;;;;;;4896149;29;20049;-70
2022/12/24 15:23:32;;;;;;;27.38;6.43;;;;;;;;;;4894311;29;20131;-69
2022/12/24 15:26:16;;;;;;;43.15;7.80;;;;;;;;;;4914009;29;20087;-69
2022/12/24 15:28:43;;;;;;;39.65;5.80;;;;;;;;;;4911761;29;20043;-69
2022/12/24 15:31:14;;;;;;;44.15;6.28;;;;;;;;;;4914577;29;20075;-69
2022/12/24 15:33:43;;;;;;;38.22;6.57;;;;;;;;;;4897974;29;20058;-69
2022/12/24 15:36:10;;;;;;;38.60;5.32;;;;;;;;;;4894435;29;20504;-69
2022/12/24 15:38:37;;;;;;;39.03;6.22;;;;;;;;;;4881401;29;20124;-69
2022/12/24 15:41:13;;;;;;;30.42;5.10;;;7.70;99.90;;;;;;4881637;29;20127;-70
2022/12/24 15:43:40;;;;;;;41.17;7.13;;;7.60;99.90;;;;;;4895499;29;20397;-69
2022/12/24 15:46:06;;;;;;;36.80;6.07;;;;;;;;;;4896350;29;20041;-69
2022/12/24 15:48:32;;;;;;;37.58;5.30;;;;;;;;;;4896536;29;20444;-69
2022/12/24 15:51:01;;;;;;;27.13;5.07;;;7.50;99.90;;;;;;4879689;29;20045;-69
2022/12/24 15:53:34;;;;;;;34.15;5.22;;;7.50;99.90;;;;;;4894906;29;20096;-69
2022/12/24 15:56:03;;;;;;;38.25;5.25;;;7.60;99.90;;;;;;4880355;29;20067;-69
2022/12/24 15:58:32;;;;;;;42.63;5.80;;;7.50;99.90;;;;;;4879041;29;20047;-69
2022/12/24 16:01:03;;;;;;;26.85;4.78;;;;;;;;;;4896874;29;20052;-74
2022/12/24 16:03:29;;;;;;;37.40;6.22;;;;;;;;;;4895011;29;20547;-70
2022/12/24 16:06:03;;;;;;;31.40;5.18;;;;;;;;;;4876772;29;20048;-70
2022/12/24 16:08:37;;;;;;;38.15;4.85;;;7.50;99.90;;;;;;4894521;29;20036;-70
2022/12/24 16:11:14;;;;;;;31.42;4.40;;;;;;;;;;4879947;29;20099;-70
2022/12/24 16:13:50;;;;;;;31.35;4.93;;;;;;;;;;4879422;29;20037;-70
2022/12/24 16:16:18;;;;;;;34.22;6.28;;;7.40;99.90;;;;;;4876689;29;20072;-70
2022/12/24 16:19:05;;;;;;;33.17;6.15;;;;;;;;;;4880281;29;20048;-70
2022/12/24 16:21:41;;;;;;;39.15;5.90;;;7.30;99.90;;;;;;4880095;29;20040;-70
2022/12/24 16:24:23;;;;;;;33.92;6.20;;;7.30;99.90;;;;;;4878469;29;20044;-70
2022/12/24 16:26:49;;;;;;;34.67;7.88;;;;;;;;;;4878366;29;20064;-70
2022/12/24 16:29:18;;;;;;;40.65;6.60;;;7.20;99.90;;;;;;4880132;29;20127;-70
2022/12/24 16:31:44;;;;;;;51.70;7.20;;;;;;;;;;4880005;29;20045;-70
2022/12/24 16:34:13;;;;;;;37.33;6.18;;;7.10;99.90;;;;;;4879605;29;20084;-70
2022/12/24 16:36:41;;;;;;;40.58;6.30;;;;;;;;;;4880067;29;20169;-70
2022/12/24 16:39:22;;;;;;;45.35;5.32;;;;;;;;;;4878607;29;20057;-70
2022/12/24 16:44:38;;;;;;;31.70;4.82;;;;;;;;;;4847996;29;20414;-70
2022/12/24 16:47:09;;;;;;;32.90;5.05;;;7.20;99.90;;;;;;4897493;29;20151;-70
2022/12/24 16:49:36;;;;;;;42.85;6.25;;;;;;;;;;4881623;29;20041;-70
2022/12/24 16:52:03;;;;;;;39.00;6.15;;;;;;;;;;4880704;29;20051;-70
2022/12/24 16:54:29;;;;;;;45.80;6.65;;;;;;;;;;4886378;29;20120;-70
2022/12/24 16:56:55;;;;;;;30.58;5.82;;;;;;;;;;4861186;29;20129;-70
2022/12/24 16:59:22;;;;;;;42.33;6.65;;;7.00;99.90;;;;;;4880813;29;20040;-70
2022/12/24 17:01:49;;;;;;;33.83;6.95;;;;;;;;;;4882679;29;20044;-70
2022/12/24 17:04:16;;;;;;;45.00;6.30;;;7.20;99.90;;;;;;4878164;29;20049;-70
2022/12/24 17:06:42;;;;;;;48.25;7.35;;;;;;;;;;4866045;29;20040;-70
2022/12/24 17:09:08;;;;;;;52.70;7.72;;;7.10;99.90;;;;;;4883730;29;20119;-70
2022/12/24 17:11:35;;;;;;;42.15;7.00;;;;;;;;;;4901138;29;20036;-70
2022/12/24 17:14:01;;;;;;;46.38;7.82;;;;;;;;;;4883814;29;20063;-70
2022/12/24 17:16:27;;;;;;;42.13;7.35;;;;;;;;;;4900061;29;20044;-70
2022/12/24 17:18:53;;;;;;;39.78;7.97;;;;;;;;;;4905259;29;20469;-71
2022/12/24 17:21:19;;;;;;;50.63;7.63;;;;;;;;;;4865933;29;20108;-70
2022/12/24 17:23:46;;;;;;;42.08;6.70;;;;;;;;;;4877595;29;20044;-72
2022/12/24 17:26:13;;;;;;;44.38;7.70;;;7.00;99.90;;;;;;4865762;29;20049;-71
2022/12/24 17:28:39;;;;;;;35.58;7.22;;;;;;;;;;4892556;29;20032;-70
2022/12/24 17:31:15;;;;;;;39.67;6.85;;;;;;;;;;4851944;29;20116;-71
2022/12/24 17:33:42;;;;;;;48.15;6.63;;;;;;;;;;4860494;29;20036;-71
2022/12/24 17:36:08;;;;;;;42.72;6.72;;;7.40;99.90;;;;;;4882458;29;20082;-71
2022/12/24 17:38:34;;;;;;;52.10;8.48;;;;;;;;;;4883449;29;20049;-71
2022/12/24 17:41:04;;;;;;;46.47;8.23;;;;;;;;;;4880092;29;20049;-71
2022/12/24 17:43:30;;;;;;;48.72;8.35;;;;;;;;;;4869611;29;20055;-71
2022/12/24 17:45:56;;;;;;;42.05;7.03;;;;;;;;;;4882635;29;20048;-71
2022/12/24 17:48:22;;;;;;;41.70;7.90;;;;;;;;;;4872385;29;20044;-71
2022/12/24 17:50:48;;;;;;;55.05;7.60;;;;;;;;;;4851253;29;20049;-71
2022/12/24 17:53:15;;;;;;;47.33;8.10;;;;;;;;;;4881201;29;20045;-71
2022/12/24 17:55:41;;;;;;;40.03;7.93;;;;;;;;;;4881413;29;20387;-71
2022/12/24 17:58:08;;;;;;;42.88;8.57;;;6.80;99.90;;;;;;4883839;29;20083;-71
2022/12/24 18:00:34;;;;;;;43.03;9.27;;;;;;;;;;4883069;29;20041;-72
2022/12/24 18:03:01;;;;;;;42.30;10.43;;;;;;;;;;4870498;29;20629;-71
2022/12/24 18:05:27;;;;;;;53.28;10.02;;;;;;;;;;4890413;29;20040;-71
2022/12/24 18:07:53;;;;;;;42.13;8.85;;;;;;;;;;4865221;29;20086;-71
2022/12/24 18:10:19;;;;;;;56.10;9.50;;;;;;;;;;4878101;29;20049;-71
2022/12/24 18:12:45;;;;;;;36.40;8.82;;;;;;;;;;4874217;29;20048;-71
2022/12/24 18:15:12;;;;;;;32.80;6.53;;;;;;;;;;4899456;29;20096;-71
2022/12/24 18:17:38;;;;;;;35.17;6.38;;;;;;;;;;4883098;29;20040;-71
2022/12/24 18:20:06;;;;;;;64.03;16.92;;;6.40;99.90;;;;;;4892817;29;20092;-71
2022/12/24 18:22:32;;;;;;;72.03;14.75;;;;;;;;;;4874274;29;20109;-71
2022/12/24 18:24:58;;;;;;;46.50;7.82;;;;;;;;;;4889089;29;20036;-71
2022/12/24 18:27:24;;;;;;;46.40;7.50;;;;;;;;;;4899906;29;20045;-71
2022/12/24 18:29:50;;;;;;;43.78;8.20;;;;;;;;;;4882115;29;20060;-71
2022/12/24 18:32:16;;;;;;;58.70;7.75;;;;;;;;;;4873807;29;20033;-71
2022/12/24 18:34:43;;;;;;;54.10;8.20;;;;;;;;;;4884653;29;20119;-71
2022/12/24 18:37:09;;;;;;;46.97;8.52;;;;;;;;;;4866477;29;20485;-71
2022/12/24 18:39:35;;;;;;;48.70;8.98;;;;;;;;;;4874618;29;20052;-71
2022/12/24 18:42:01;;;;;;;47.63;8.38;;;;;;;;;;4872739;29;20075;-71
2022/12/24 18:44:27;;;;;;;52.67;10.90;;;;;;;;;;4879417;29;20124;-71
2022/12/24 18:46:53;;;;;;;50.20;7.63;;;;;;;;;;4874744;29;20045;-71
2022/12/24 18:49:19;;;;;;;52.33;8.93;;;;;;;;;;4876116;29;20635;-71
2022/12/24 18:51:45;;;;;;;44.38;10.98;;;;;;;;;;4873287;29;20395;-71
2022/12/24 18:54:11;;;;;;;55.42;11.27;;;;;;;;;;4878408;29;20412;-71
2022/12/24 18:56:37;;;;;;;47.45;9.20;;;;;;;;;;4888067;29;20079;-71
2022/12/24 18:59:03;;;;;;;47.88;10.98;;;;;;;;;;4882362;29;20501;-71
2022/12/24 19:01:34;;;;;;;40.22;8.75;;;6.00;99.90;;;;;;4898365;29;20497;-71
2022/12/24 19:04:00;;;;;;;53.05;10.43;;;;;;;;;;4880983;29;20048;-71
2022/12/24 19:06:26;;;;;;;44.67;10.48;;;;;;;;;;4886092;29;20542;-71
2022/12/24 19:08:52;;;;;;;38.75;10.05;;;;;;;;;;4867411;29;20257;-71
2022/12/24 19:11:19;;;;;;;44.13;9.23;;;;;;;;;;4898432;29;20088;-71
2022/12/24 19:13:48;;;;;;;67.10;12.18;;;5.80;99.90;;;;;;4878122;29;20404;-71
2022/12/24 19:16:15;;;;;;;60.38;10.55;;;;;;;;;;4896164;29;20047;-71
2022/12/24 19:18:41;;;;;;;76.82;11.07;;;;;;;;;;4881909;29;20405;-71
2022/12/24 19:21:08;;;;;;;68.70;9.60;;;;;;;;;;4897912;29;20075;-71
2022/12/24 19:23:34;;;;;;;65.95;11.15;;;;;;;;;;4882200;29;20052;-71
2022/12/24 19:26:00;;;;;;;57.97;9.70;;;;;;;;;;4889817;29;20077;-71
2022/12/24 19:28:26;;;;;;;59.40;12.57;;;;;;;;;;4895286;29;20047;-71
2022/12/24 19:30:52;;;;;;;45.08;9.95;;;;;;;;;;4881409;29;20076;-71
2022/12/24 19:33:18;;;;;;;58.85;11.07;;;;;;;;;;4880527;29;20081;-71
2022/12/24 19:35:44;;;;;;;55.67;9.75;;;;;;;;;;4890982;29;20073;-71
2022/12/24 19:38:10;;;;;;;66.53;9.43;;;;;;;;;;4868275;29;20084;-71
2022/12/24 19:40:37;;;;;;;61.83;8.93;;;;;;;;;;4897985;29;20063;-71
2022/12/24 19:43:03;;;;;;;68.35;10.85;;;;;;;;;;4877093;29;20469;-71
2022/12/24 19:45:29;;;;;;;51.45;8.73;;;;;;;;;;4887450;29;20091;-71
2022/12/24 19:47:55;;;;;;;67.65;12.65;;;;;;;;;;4864286;29;20041;-71
2022/12/24 19:50:21;;;;;;;56.78;9.10;;;;;;;;;;4869953;29;20119;-71
2022/12/24 19:52:48;;;;;;;53.72;9.18;;;;;;;;;;4881012;29;20064;-71
2022/12/24 19:55:14;;;;;;;57.70;10.23;;;;;;;;;;4883269;29;20041;-71
2022/12/24 19:57:40;;;;;;;60.40;10.68;;;;;;;;;;4887334;29;20131;-71
2022/12/24 20:00:09;;;;;;;57.70;10.10;;;6.10;99.90;;;;;;4874419;29;20049;-71
2022/12/24 20:02:35;;;;;;;35.05;8.50;;;;;;;;;;4877228;29;20084;-71
2022/12/24 20:05:01;;;;;;;63.95;9.98;;;;;;;;;;4880796;29;20401;-71
2022/12/24 20:07:27;;;;;;;45.75;8.50;;;;;;;;;;4893624;29;20045;-71
2022/12/24 20:09:53;;;;;;;67.88;9.80;;;;;;;;;;4865577;29;20437;-71
2022/12/24 20:12:19;;;;;;;57.30;8.70;;;;;;;;;;4863259;29;20127;-71
2022/12/24 20:14:45;;;;;;;65.93;10.27;;;;;;;;;;4873566;29;20044;-71
2022/12/24 20:17:13;;;;;;;48.70;7.88;;;;;;;;;;4896403;29;20045;-71
2022/12/24 20:19:39;;;;;;;37.67;7.85;;;;;;;;;;4871101;29;20081;-71
2022/12/24 20:22:05;;;;;;;51.55;8.95;;;;;;;;;;4864100;29;20045;-71
2022/12/24 20:24:31;;;;;;;51.28;9.57;;;;;;;;;;4874513;29;20037;-71
2022/12/24 20:26:58;;;;;;;55.92;10.48;;;;;;;;;;4896957;29;20052;-71
2022/12/24 20:29:24;;;;;;;35.90;10.27;;;;;;;;;;4869862;29;20044;-71
2022/12/24 20:31:50;;;;;;;49.75;10.38;;;;;;;;;;4900280;29;20048;-71
2022/12/24 20:34:16;;;;;;;49.13;10.90;;;;;;;;;;4886938;29;20053;-71
2022/12/24 20:36:42;;;;;;;63.90;10.50;;;;;;;;;;4898663;29;20044;-71
2022/12/24 20:39:11;;;;;;;72.80;11.77;;;5.80;99.90;;;;;;4877399;29;20494;-71
2022/12/24 20:41:37;;;;;;;54.25;11.48;;;;;;;;;;4900791;29;20063;-71
2022/12/24 20:44:03;;;;;;;61.90;11.95;;;;;;;;;;4860919;29;20176;-71
2022/12/24 20:46:29;;;;;;;73.60;13.18;;;;;;;;;;4884363;29;20452;-71
2022/12/24 20:48:56;;;;;;;63.42;11.23;;;;;;;;;;4883438;29;20103;-71
2022/12/24 20:51:23;;;;;;;53.15;11.82;;;;;;;;;;4884206;29;20089;-71
2022/12/24 20:53:49;;;;;;;54.33;11.10;;;;;;;;;;4877850;29;20045;-71
2022/12/24 20:56:16;;;;;;;56.28;11.57;;;6.00;99.90;;;;;;4882235;29;20045;-71
2022/12/24 20:58:42;;;;;;;78.80;25.20;;;;;;;;;;4884758;29;20041;-71
2022/12/24 21:01:27;;;;;;;151.73;46.25;;;5.80;99.90;;;;;;4872758;29;20409;-70
2022/12/24 21:03:55;;;;;;;124.20;33.03;;;5.90;99.90;;;;;;4900365;29;20048;-71
2022/12/24 21:06:23;;;;;;;88.55;17.70;;;6.00;99.90;;;;;;4888387;29;20401;-71
2022/12/24 21:08:49;;;;;;;82.78;16.95;;;;;;;;;;4871872;29;20393;-71
2022/12/24 21:14:00;;;;;;;66.95;16.15;;;;;;;;;;4890180;29;20072;-71
2022/12/24 21:16:27;;;;;;;81.47;20.52;;;;;;;;;;4888031;29;20049;-71
2022/12/24 21:18:53;;;;;;;61.72;16.67;;;;;;;;;;4901470;29;20080;-71
2022/12/24 21:21:19;;;;;;;74.68;19.13;;;;;;;;;;4874806;29;20053;-71